Time;durP1;ratioP1;P1;durP2;ratioP2;P2;SDS_P1;SDS_P2;PMS_P1;PMS_P2;Temp;Humidity;BMP_temperature;BMP_pressure;BME280_temperature;BME280_humidity;BME280_pressure;Samples;Min_cycle;Max_cycle;Signal;HPM_P1;HPM_P2
2021/08/04 00:01:50;;;;;;;35.15;31.90;;;;;;;14.13;100.00;101273.06;5280768;28;20032;-67
2021/08/04 00:04:21;;;;;;;35.30;31.75;;;;;;;14.14;100.00;101277.34;5288480;28;20044;-67
2021/08/04 00:06:53;;;;;;;32.78;29.70;;;;;;;14.14;100.00;101271.25;5286694;28;20021;-67
2021/08/04 00:09:24;;;;;;;35.10;31.30;;;;;;;14.12;100.00;101276.66;5281125;28;20047;-67
2021/08/04 00:11:55;;;;;;;33.03;29.92;;;;;;;14.12;100.00;101272.22;5283678;28;20101;-67
2021/08/04 00:14:27;;;;;;;31.77;28.92;;;;;;;14.03;100.00;101273.06;5287378;28;20123;-67
2021/08/04 00:16:58;;;;;;;30.55;27.75;;;;;;;14.04;100.00;101279.16;5288157;28;20490;-67
2021/08/04 00:19:30;;;;;;;32.67;29.38;;;;;;;13.99;100.00;101279.59;5287373;28;20432;-67
2021/08/04 00:22:01;;;;;;;31.30;28.30;;;;;;;13.96;100.00;101279.88;5286863;28;20050;-67
2021/08/04 00:24:33;;;;;;;31.02;27.88;;;;;;;13.93;100.00;101281.97;5285620;28;20120;-67
2021/08/04 00:27:04;;;;;;;31.05;27.88;;;;;;;13.85;100.00;101269.50;5287776;28;20073;-67
2021/08/04 00:29:36;;;;;;;32.03;28.83;;;;;;;13.78;100.00;101276.28;5283082;28;20036;-67
2021/08/04 00:32:07;;;;;;;31.60;28.38;;;;;;;13.81;100.00;101279.47;5287073;28;20034;-67
2021/08/04 00:34:38;;;;;;;30.35;27.48;;;;;;;13.84;100.00;101278.38;5286032;28;20032;-67
2021/08/04 00:37:09;;;;;;;29.60;26.65;;;;;;;13.83;100.00;101279.38;5285915;28;20122;-67
2021/08/04 00:39:41;;;;;;;28.27;25.48;;;;;;;13.80;100.00;101277.00;5284979;28;20028;-67
2021/08/04 00:42:16;;;;;;;28.25;25.55;;;;;;;13.83;100.00;101269.66;5283583;28;20043;-67
2021/08/04 00:44:48;;;;;;;31.02;28.08;;;;;;;13.79;100.00;101272.72;5283504;28;20245;-67
2021/08/04 00:47:19;;;;;;;29.80;26.92;;;;;;;13.73;100.00;101268.81;5285023;28;20024;-67
2021/08/04 00:49:51;;;;;;;29.48;26.63;;;;;;;13.73;100.00;101273.25;5285200;28;20527;-67
2021/08/04 00:52:22;;;;;;;28.85;26.08;;;;;;;13.74;100.00;101269.66;5265804;28;20024;-67
2021/08/04 00:54:53;;;;;;;28.88;26.23;;;;;;;13.74;100.00;101267.84;5282278;28;20020;-67
2021/08/04 00:57:25;;;;;;;28.65;25.88;;;;;;;13.67;100.00;101272.00;5286948;28;20033;-67
2021/08/04 00:59:56;;;;;;;29.35;26.38;;;;;;;13.67;100.00;101266.75;5283606;28;20090;-67
2021/08/04 01:02:52;;;;;;;29.33;26.52;;;;;;;13.69;100.00;101270.06;5285947;28;20043;-67
2021/08/04 01:05:28;;;;;;;27.38;24.67;;;;;;;13.64;100.00;101272.31;5279083;28;20546;-67
2021/08/04 01:08:09;;;;;;;27.40;24.80;;;;;;;13.68;100.00;101280.75;5286039;28;20056;-67
2021/08/04 01:10:43;;;;;;;26.50;23.90;;;;;;;13.60;100.00;101276.19;5283438;28;20032;-67
2021/08/04 01:13:20;;;;;;;27.20;24.65;;;;;;;13.53;100.00;101275.09;5284407;28;20103;-67
2021/08/04 01:16:05;;;;;;;25.25;22.88;;;;;;;13.52;100.00;101278.66;5284157;28;20450;-67
2021/08/04 01:19:02;;;;;;;26.08;23.40;;;;;;;13.63;100.00;101287.25;5284378;28;20037;-67
2021/08/04 01:21:46;;;;;;;25.92;23.27;;;;;;;13.51;100.00;101282.28;5285635;28;20665;-67
2021/08/04 01:24:25;;;;;;;26.38;23.77;;;;;;;13.51;100.00;101280.47;5287687;28;20026;-67
2021/08/04 01:26:59;;;;;;;26.83;24.08;;;;;;;13.48;100.00;101285.19;5286422;28;20032;-67
2021/08/04 01:29:30;;;;;;;26.50;23.90;;;;;;;13.43;100.00;101279.50;5283623;28;20024;-67
2021/08/04 01:32:02;;;;;;;28.75;25.65;;;;;;;13.35;100.00;101282.81;5286320;28;20028;-67
2021/08/04 01:34:38;;;;;;;27.08;24.48;;;;;;;13.37;100.00;101278.25;5284827;28;20865;-67
2021/08/04 01:37:10;;;;;;;26.83;24.17;;;;;;;13.29;100.00;101278.94;5283628;28;20051;-67
2021/08/04 01:39:44;;;;;;;28.10;25.20;;;;;;;13.30;100.00;101283.25;5281469;28;20036;-67
2021/08/04 01:42:17;;;;;;;26.42;23.77;;;;;;;13.23;100.00;101276.88;5285523;28;20081;-67
2021/08/04 01:44:50;;;;;;;25.60;23.20;;;;;;;13.20;100.00;101278.91;5285689;28;20049;-67
2021/08/04 01:47:22;;;;;;;26.25;23.58;;;;;;;13.23;100.00;101283.91;5285665;28;20024;-67
2021/08/04 01:49:54;;;;;;;25.90;23.40;;;;;;;13.23;100.00;101274.22;5283687;28;20466;-68
2021/08/04 01:52:26;;;;;;;25.90;23.27;;;;;;;13.15;100.00;101274.88;5267772;28;20289;-67
2021/08/04 01:54:58;;;;;;;25.88;23.15;;;;;;;13.12;100.00;101271.69;5285017;28;20103;-67
2021/08/04 01:57:29;;;;;;;26.30;23.77;;;;;;;13.07;100.00;101268.66;5283800;28;20547;-67
2021/08/04 02:00:00;;;;;;;26.75;24.05;;;;;;;13.02;100.00;101273.47;5265608;28;20052;-67
2021/08/04 02:02:32;;;;;;;26.52;24.08;;;;;;;13.04;100.00;101275.00;5282856;28;20017;-67
2021/08/04 02:05:03;;;;;;;29.73;24.27;;;;;;;13.01;100.00;101266.53;5284179;28;20615;-67
2021/08/04 02:07:58;;;;;;;26.95;24.30;;;;;;;13.06;100.00;101266.97;5282139;28;20393;-67
2021/08/04 02:10:39;;;;;;;28.33;25.63;;;;;;;13.01;100.00;101259.47;5282029;28;20039;-67
2021/08/04 02:13:26;;;;;;;28.33;25.40;;;;;;;13.05;100.00;101255.63;5283475;28;20058;-67
2021/08/04 02:16:13;;;;;;;27.83;24.88;;;;;;;13.05;100.00;101252.97;5282224;28;20103;-67
2021/08/04 02:18:49;;;;;;;27.58;24.88;;;;;;;12.99;100.00;101250.88;5283754;28;20509;-67
2021/08/04 02:21:23;;;;;;;27.13;24.27;;;;;;;12.99;100.00;101258.78;5285090;28;20039;-67
2021/08/04 02:23:55;;;;;;;27.02;24.05;;;;;;;12.95;100.00;101251.28;5284997;28;20024;-67
2021/08/04 02:26:28;;;;;;;26.25;23.67;;;;;;;12.84;100.00;101246.97;5283809;28;20516;-67
2021/08/04 02:29:01;;;;;;;25.90;23.50;;;;;;;12.82;100.00;101255.00;5284768;28;20084;-67
2021/08/04 02:31:33;;;;;;;25.80;23.23;;;;;;;12.84;100.00;101255.72;5284534;28;20027;-67
2021/08/04 02:34:05;;;;;;;25.70;23.10;;;;;;;12.83;100.00;101256.66;5282740;28;20416;-67
2021/08/04 02:36:36;;;;;;;25.98;23.27;;;;;;;12.80;100.00;101253.47;5284811;28;20031;-67
2021/08/04 02:39:07;;;;;;;26.70;24.02;;;;;;;12.77;100.00;101251.13;5285461;28;20082;-67
2021/08/04 02:41:39;;;;;;;25.42;22.83;;;;;;;12.82;100.00;101265.53;5280208;28;20020;-67
2021/08/04 02:44:15;;;;;;;25.95;23.25;;;;;;;12.76;100.00;101266.06;5286546;28;20103;-67
2021/08/04 02:46:47;;;;;;;26.10;23.50;;;;;;;12.75;100.00;101259.13;5282296;28;20167;-67
2021/08/04 02:49:19;;;;;;;25.02;22.40;;;;;;;12.70;100.00;101263.97;5283298;28;20032;-67
2021/08/04 02:51:51;;;;;;;26.25;23.50;;;;;;;12.66;100.00;101257.31;5282018;28;20618;-68
2021/08/04 02:54:22;;;;;;;25.20;22.58;;;;;;;12.68;100.00;101263.25;5287170;28;20036;-67
2021/08/04 02:56:53;;;;;;;25.40;22.75;;;;;;;12.68;100.00;101259.81;5286019;28;20019;-67
2021/08/04 02:59:25;;;;;;;27.08;24.45;;;;;;;12.60;100.00;101255.22;5281530;28;20493;-68
2021/08/04 03:01:56;;;;;;;26.10;23.40;;;;;;;12.60;100.00;101258.69;5284272;28;20059;-67
2021/08/04 03:04:27;;;;;;;25.23;22.67;;;;;;;12.54;100.00;101263.63;5284043;28;20020;-67
2021/08/04 03:06:58;;;;;;;26.88;24.20;;;;;;;12.50;100.00;101260.47;5283698;28;20104;-67
2021/08/04 03:09:30;;;;;;;25.83;23.33;;;;;;;12.46;100.00;101255.56;5284262;28;20042;-67
2021/08/04 03:12:02;;;;;;;26.65;24.05;;;;;;;12.45;100.00;101256.53;5285191;28;20052;-67
2021/08/04 03:14:33;;;;;;;24.90;22.42;;;;;;;12.43;100.00;101250.59;5280876;28;20031;-68
2021/08/04 03:17:04;;;;;;;26.67;23.88;;;;;;;12.41;100.00;101251.53;5282677;28;20027;-68
2021/08/04 03:19:36;;;;;;;25.63;23.08;;;;;;;12.40;100.00;101257.78;5284217;28;20115;-67
2021/08/04 03:22:07;;;;;;;26.48;23.65;;;;;;;12.35;100.00;101257.34;5285954;28;20032;-67
2021/08/04 03:24:38;;;;;;;25.70;23.02;;;;;;;12.32;100.00;101267.28;5287856;28;20663;-67
2021/08/04 03:27:10;;;;;;;24.67;22.02;;;;;;;12.36;100.00;101269.50;5289820;28;20036;-67
2021/08/04 03:29:41;;;;;;;26.52;23.83;;;;;;;12.36;100.00;101263.44;5286913;28;20102;-67
2021/08/04 03:32:12;;;;;;;25.45;22.95;;;;;;;12.46;100.00;101271.34;5283576;28;20154;-67
2021/08/04 03:34:44;;;;;;;26.27;23.63;;;;;;;12.48;100.00;101269.44;5289053;28;20032;-67
2021/08/04 03:37:15;;;;;;;25.42;22.88;;;;;;;12.48;100.00;101261.53;5285557;28;20239;-67
2021/08/04 03:39:46;;;;;;;26.92;24.17;;;;;;;12.55;100.00;101275.81;5287271;28;20072;-67
2021/08/04 03:42:17;;;;;;;24.27;21.67;;;;;;;12.53;100.00;101267.22;5287956;28;20052;-67
2021/08/04 03:44:49;;;;;;;24.70;22.45;;;;;;;12.60;100.00;101266.56;5284525;28;20032;-67
2021/08/04 03:47:20;;;;;;;24.67;22.25;;;;;;;12.54;100.00;101271.50;5287215;28;20457;-67
2021/08/04 03:49:52;;;;;;;25.85;23.33;;;;;;;12.55;100.00;101275.81;5287594;28;20032;-68
2021/08/04 03:52:24;;;;;;;27.55;24.45;;;;;;;12.54;100.00;101271.50;5286630;28;20395;-68
2021/08/04 03:54:55;;;;;;;24.92;22.45;;;;;;;12.55;100.00;101276.66;5284570;28;20035;-68
2021/08/04 03:57:26;;;;;;;26.42;23.15;;;;;;;12.58;100.00;101276.38;5288418;28;20546;-68
2021/08/04 03:59:58;;;;;;;25.95;23.35;;;;;;;12.57;100.00;101273.88;5286895;28;20022;-68
2021/08/04 04:02:29;;;;;;;25.92;23.33;;;;;;;12.54;100.00;101275.00;5280982;28;20057;-68
2021/08/04 04:05:00;;;;;;;24.40;22.08;;;;;;;12.53;100.00;101270.69;5284664;28;20039;-68
2021/08/04 04:07:31;;;;;;;24.55;22.15;;;;;;;12.54;100.00;101274.13;5285705;28;20059;-68
2021/08/04 04:10:03;;;;;;;25.45;23.05;;;;;;;12.57;100.00;101272.06;5284650;28;20036;-68
2021/08/04 04:12:35;;;;;;;24.73;22.23;;;;;;;12.50;100.00;101272.75;5285435;28;20023;-67
2021/08/04 04:15:07;;;;;;;24.77;22.48;;;;;;;12.54;100.00;101272.38;5286295;28;20049;-68
2021/08/04 04:17:38;;;;;;;26.73;23.65;;;;;;;12.46;100.00;101277.41;5286563;28;20029;-68
2021/08/04 04:20:12;;;;;;;24.67;21.60;;;;;;;12.46;100.00;101280.06;5285936;28;20361;-68
2021/08/04 04:22:44;;;;;;;24.65;22.17;;;;;;;12.46;100.00;101289.72;5286082;28;20031;-68
2021/08/04 04:25:16;;;;;;;24.88;22.35;;;;;;;12.44;100.00;101286.44;5287746;28;20412;-67
2021/08/04 04:27:47;;;;;;;23.67;21.37;;;;;;;12.45;100.00;101285.44;5285830;28;20412;-68
2021/08/04 04:30:19;;;;;;;24.20;21.85;;;;;;;12.37;100.00;101283.47;5283492;28;20032;-68
2021/08/04 04:32:50;;;;;;;23.52;21.35;;;;;;;12.39;100.00;101294.72;5284545;28;20082;-68
2021/08/04 04:35:21;;;;;;;24.20;21.73;;;;;;;12.38;100.00;101283.34;5285796;28;20028;-68
2021/08/04 04:37:53;;;;;;;24.05;21.65;;;;;;;12.43;100.00;101290.03;5283956;28;20029;-68
2021/08/04 04:40:24;;;;;;;24.27;21.77;;;;;;;12.46;100.00;101295.00;5287563;28;20028;-68
2021/08/04 04:42:55;;;;;;;24.08;21.70;;;;;;;12.50;100.00;101292.00;5286935;28;20432;-67
2021/08/04 04:45:26;;;;;;;25.00;22.45;;;;;;;12.57;100.00;101298.34;5286939;28;20094;-68
2021/08/04 04:47:58;;;;;;;24.20;21.75;;;;;;;12.60;100.00;101298.09;5285082;28;20624;-68
2021/08/04 04:50:30;;;;;;;24.98;22.48;;;;;;;12.64;100.00;101286.34;5282879;28;20058;-68
2021/08/04 04:53:02;;;;;;;26.25;23.70;;;;;;;12.69;100.00;101290.38;5283989;28;20324;-68
2021/08/04 04:55:33;;;;;;;25.17;22.55;;;;;;;12.75;100.00;101282.81;5285296;28;20051;-68
2021/08/04 04:58:04;;;;;;;25.13;22.63;;;;;;;12.83;100.00;101288.22;5282048;28;20028;-68
2021/08/04 05:00:35;;;;;;;24.08;21.67;;;;;;;12.93;100.00;101290.06;5284590;28;20036;-68
2021/08/04 05:03:07;;;;;;;24.35;21.80;;;;;;;13.00;100.00;101293.81;5287350;28;20028;-68
2021/08/04 05:05:38;;;;;;;25.17;22.70;;;;;;;13.07;100.00;101295.78;5285333;28;20107;-68
2021/08/04 05:08:09;;;;;;;24.15;21.55;;;;;;;13.11;100.00;101293.72;5286728;28;20054;-68
2021/08/04 05:10:40;;;;;;;25.52;22.77;;;;;;;13.14;100.00;101298.69;5283265;28;20410;-68
2021/08/04 05:13:12;;;;;;;25.02;22.33;;;;;;;13.18;100.00;101294.81;5285790;28;20029;-68
2021/08/04 05:15:43;;;;;;;26.33;23.63;;;;;;;13.18;100.00;101297.44;5285348;28;21011;-68
2021/08/04 05:18:14;;;;;;;25.08;22.63;;;;;;;13.28;100.00;101298.31;5285103;28;20103;-68
2021/08/04 05:20:46;;;;;;;24.35;22.05;;;;;;;13.33;100.00;101304.03;5282328;28;20339;-68
2021/08/04 05:23:17;;;;;;;24.80;22.25;;;;;;;13.30;100.00;101306.94;5283462;28;20032;-68
2021/08/04 05:25:48;;;;;;;24.73;22.13;;;;;;;13.38;100.00;101304.44;5286483;28;20516;-68
2021/08/04 05:28:20;;;;;;;25.10;22.60;;;;;;;13.42;100.00;101314.69;5287206;28;20478;-68
2021/08/04 05:30:52;;;;;;;26.80;24.05;;;;;;;13.48;100.00;101311.50;5283022;28;20024;-68
2021/08/04 05:33:23;;;;;;;25.30;22.75;;;;;;;13.51;100.00;101305.97;5286605;28;20032;-68
2021/08/04 05:35:54;;;;;;;26.02;23.42;;;;;;;13.58;100.00;101307.06;5283586;28;20027;-68
2021/08/04 05:38:25;;;;;;;26.15;23.63;;;;;;;13.60;100.00;101310.41;5283571;28;20470;-68
2021/08/04 05:40:57;;;;;;;26.27;23.58;;;;;;;13.64;100.00;101314.44;5285115;28;20046;-68
2021/08/04 05:43:28;;;;;;;26.65;24.00;;;;;;;13.73;100.00;101316.22;5286238;28;20081;-68
2021/08/04 05:45:59;;;;;;;27.13;24.52;;;;;;;13.76;100.00;101313.31;5284813;28;20028;-68
2021/08/04 05:48:30;;;;;;;26.23;23.58;;;;;;;13.83;100.00;101298.63;5281626;28;20167;-68
2021/08/04 05:51:02;;;;;;;26.00;23.45;;;;;;;13.91;100.00;101308.47;5283780;28;20044;-68
2021/08/04 05:53:33;;;;;;;24.45;22.05;;;;;;;13.90;100.00;101305.94;5282685;28;20481;-68
2021/08/04 05:56:04;;;;;;;25.73;23.23;;;;;;;13.99;100.00;101305.94;5284130;28;20495;-68
2021/08/04 05:58:36;;;;;;;24.85;22.40;;;;;;;14.00;100.00;101306.78;5265383;28;20040;-68
2021/08/04 06:01:07;;;;;;;25.85;23.35;;;;;;;14.05;100.00;101307.16;5285563;28;20231;-68
2021/08/04 06:03:38;;;;;;;25.08;22.60;;;;;;;14.10;100.00;101307.59;5286060;28;20024;-68
2021/08/04 06:06:09;;;;;;;26.33;23.63;;;;;;;14.17;100.00;101308.69;5283317;28;20050;-68
2021/08/04 06:08:41;;;;;;;26.67;24.05;;;;;;;14.24;100.00;101311.56;5280437;28;20043;-68
2021/08/04 06:11:12;;;;;;;26.23;23.40;;;;;;;14.26;100.00;101310.47;5281938;28;20085;-68
2021/08/04 06:13:43;;;;;;;25.55;22.92;;;;;;;14.33;100.00;101308.09;5273800;28;20513;-69
2021/08/04 06:16:15;;;;;;;26.25;23.42;;;;;;;14.40;100.00;101316.28;5279978;28;20452;-69
2021/08/04 06:18:46;;;;;;;25.27;22.88;;;;;;;14.44;100.00;101313.19;5280533;28;20567;-70
2021/08/04 06:21:18;;;;;;;26.83;23.92;;;;;;;14.52;100.00;101309.88;5273117;28;20077;-70
2021/08/04 06:23:49;;;;;;;27.00;24.17;;;;;;;14.56;100.00;101322.63;5279850;28;20032;-70
2021/08/04 06:26:20;;;;;;;26.83;24.00;;;;;;;14.64;100.00;101323.69;5281947;28;20055;-69
2021/08/04 06:28:51;;;;;;;26.10;23.55;;;;;;;14.70;100.00;101321.31;5275436;28;20024;-70
2021/08/04 06:31:23;;;;;;;27.67;23.70;;;;;;;14.75;100.00;101316.44;5278393;28;20030;-69
2021/08/04 06:33:54;;;;;;;25.90;23.30;;;;;;;14.81;100.00;101320.28;5276319;28;20376;-69
2021/08/04 06:36:25;;;;;;;24.85;22.35;;;;;;;14.86;100.00;101318.06;5283332;28;20024;-69
2021/08/04 06:38:57;;;;;;;24.92;22.48;;;;;;;14.89;100.00;101317.78;5282193;28;20129;-70
2021/08/04 06:41:28;;;;;;;24.08;21.63;;;;;;;14.89;100.00;101309.84;5282917;28;20017;-69
2021/08/04 06:43:59;;;;;;;25.58;22.92;;;;;;;14.98;100.00;101308.13;5286516;28;20417;-69
2021/08/04 06:46:35;;;;;;;27.80;23.58;;;;;;;15.09;100.00;101302.66;5283540;28;20461;-69
2021/08/04 06:49:07;;;;;;;27.55;24.58;;;;;;;15.06;100.00;101308.22;5281989;28;20431;-69
2021/08/04 06:51:38;;;;;;;25.70;23.13;;;;;;;15.13;100.00;101317.22;5282418;28;20048;-68
2021/08/04 06:54:09;;;;;;;25.65;21.75;;;;;;;15.24;100.00;101317.00;5280563;28;20028;-68
2021/08/04 06:56:41;;;;;;;23.05;20.60;;;;;;;15.28;100.00;101321.00;5281633;28;20020;-68
2021/08/04 06:59:12;;;;;;;22.27;19.33;;;;;;;15.36;100.00;101314.97;5289605;28;20067;-69
2021/08/04 07:01:47;;;;;;;22.83;19.95;;;;;;;15.45;100.00;101319.34;5286645;28;20028;-68
2021/08/04 07:04:18;;;;;;;21.45;19.00;;;;;;;15.59;100.00;101323.28;5284375;28;20059;-67
2021/08/04 07:06:58;;;;;;;20.42;18.27;;;;;;;15.72;100.00;101321.13;5287338;28;20453;-67
2021/08/04 07:09:33;;;;;;;20.65;18.45;;;;;;;15.81;100.00;101308.81;5289510;28;20039;-68
2021/08/04 07:12:05;;;;;;;20.23;18.13;;;;;;;15.90;100.00;101313.16;5285083;28;20403;-67
2021/08/04 07:14:38;;;;;;;20.40;18.15;;;;;;;16.01;100.00;101312.09;5287568;28;20032;-68
2021/08/04 07:17:09;;;;;;;20.60;17.90;;;;;;;16.08;100.00;101313.13;5286461;28;20071;-68
2021/08/04 07:19:41;;;;;;;18.33;16.50;;;;;;;16.26;100.00;101310.47;5288683;28;20119;-68
2021/08/04 07:22:12;;;;;;;16.35;14.65;;;;;;;16.31;100.00;101321.38;5285154;28;20060;-67
2021/08/04 07:24:43;;;;;;;18.20;15.77;;;;;;;16.44;100.00;101310.38;5285396;28;20020;-67
2021/08/04 07:27:15;;;;;;;15.73;14.10;;;;;;;16.56;100.00;101310.97;5283015;28;20081;-67
2021/08/04 07:29:46;;;;;;;16.17;13.75;;;;;;;16.55;100.00;101310.09;5287148;28;20032;-67
2021/08/04 07:32:17;;;;;;;12.40;11.07;;;;;;;16.70;100.00;101308.53;5286008;28;20034;-67
2021/08/04 07:34:48;;;;;;;12.82;11.63;;;;;;;16.78;100.00;101303.31;5284058;28;20031;-67
2021/08/04 07:37:20;;;;;;;12.50;10.13;;;;;;;16.95;100.00;101303.38;5285845;28;20043;-67
2021/08/04 07:39:51;;;;;;;10.88;9.82;;;;;;;16.98;100.00;101297.75;5283336;28;20052;-67
2021/08/04 07:42:26;;;;;;;8.95;6.53;;;;;;;17.17;100.00;101297.47;5267863;28;20035;-67
2021/08/04 07:44:57;;;;;;;8.60;7.70;;;;;;;17.20;100.00;101297.16;5282780;28;20107;-67
2021/08/04 07:47:28;;;;;;;12.57;8.82;;;;;;;17.38;100.00;101312.91;5257692;28;20017;-67
2021/08/04 07:49:59;;;;;;;10.80;8.32;;;;;;;17.46;98.32;101301.50;5276442;28;20111;-67
2021/08/04 07:52:31;;;;;;;8.07;7.25;;;;;;;17.68;98.77;101300.84;5279751;28;20024;-67
2021/08/04 07:55:04;;;;;;;8.90;7.10;;;;;;;17.71;97.67;101305.81;5282726;28;20028;-67
2021/08/04 07:57:35;;;;;;;8.52;7.30;;;;;;;17.82;98.30;101310.00;5280412;28;20565;-67
2021/08/04 08:00:08;;;;;;;12.10;8.43;;;;;;;17.92;98.92;101307.19;5279736;28;20036;-67
2021/08/04 08:02:39;;;;;;;11.33;8.63;;;;;;;18.08;99.78;101306.34;5278758;28;20037;-67
2021/08/04 08:05:10;;;;;;;9.85;8.82;;;;;;;18.22;99.42;101308.28;5287366;28;20039;-67
2021/08/04 08:07:49;;;;;;;11.18;8.55;;;;;;;18.37;100.00;101303.09;5276208;28;20100;-67
2021/08/04 08:10:21;;;;;;;12.90;10.68;;;;;;;18.42;100.00;101300.78;5275636;28;20048;-67
2021/08/04 08:12:53;;;;;;;11.30;9.55;;;;;;;18.54;98.62;101304.72;5275075;28;20359;-67
2021/08/04 08:15:25;;;;;;;11.27;9.17;;;;;;;18.62;99.24;101298.56;5281265;28;20038;-67
2021/08/04 08:17:56;;;;;;;9.30;8.18;;;;;;;18.76;96.33;101297.06;5283285;28;20465;-67
2021/08/04 08:20:27;;;;;;;9.47;6.50;;;;;;;18.85;88.73;101303.97;5287420;28;20037;-67
2021/08/04 08:22:59;;;;;;;8.97;5.90;;;;;;;18.90;89.61;101302.47;5284573;28;20057;-67
2021/08/04 08:25:30;;;;;;;7.60;6.00;;;;;;;18.95;89.46;101297.44;5285635;28;20028;-67
2021/08/04 08:28:02;;;;;;;8.05;5.53;;;;;;;19.06;87.49;101292.75;5284814;28;20035;-67
2021/08/04 08:30:36;;;;;;;8.10;5.53;;;;;;;19.20;84.66;101289.34;5266464;28;20502;-67
2021/08/04 08:33:07;;;;;;;7.72;5.97;;;;;;;19.25;84.79;101287.00;5282272;28;20500;-67
2021/08/04 08:35:39;;;;;;;8.85;5.63;;;;;;;19.38;83.06;101289.88;5284553;28;20114;-67
2021/08/04 08:38:10;;;;;;;8.57;5.50;;;;;;;19.49;85.99;101301.94;5285443;28;20024;-67
2021/08/04 08:40:45;;;;;;;8.97;5.90;;;;;;;19.49;81.69;101293.97;5284590;28;20023;-67
2021/08/04 08:43:17;;;;;;;7.70;3.80;;;;;;;19.63;77.76;101292.41;5286397;28;20024;-67
2021/08/04 08:45:48;;;;;;;7.43;3.80;;;;;;;19.66;73.88;101292.88;5284432;28;20028;-67
2021/08/04 08:48:20;;;;;;;4.67;3.27;;;;;;;19.77;76.57;101288.09;5283810;28;20027;-67
2021/08/04 08:50:51;;;;;;;4.50;3.80;;;;;;;19.88;80.27;101283.19;5268167;28;20056;-67
2021/08/04 08:53:22;;;;;;;8.80;4.73;;;;;;;19.97;80.45;101286.59;5285643;28;20023;-67
2021/08/04 08:55:54;;;;;;;7.73;4.70;;;;;;;20.07;79.20;101281.00;5284365;28;20027;-67
2021/08/04 08:58:25;;;;;;;6.23;4.23;;;;;;;20.30;78.27;101284.41;5284050;28;20101;-67
2021/08/04 09:00:56;;;;;;;7.83;4.93;;;;;;;20.38;79.35;101287.00;5284539;28;20020;-68
2021/08/04 09:03:28;;;;;;;5.77;4.90;;;;;;;20.46;78.54;101295.91;5286639;28;20020;-68
2021/08/04 09:05:59;;;;;;;7.13;5.47;;;;;;;20.52;75.81;101289.88;5284642;28;20391;-67
2021/08/04 09:08:32;;;;;;;7.23;4.63;;;;;;;20.60;77.01;101298.56;5285628;28;20023;-68
2021/08/04 09:11:16;;;;;;;6.72;4.10;;;;;;;20.74;77.70;101296.91;5281119;28;20035;-67
2021/08/04 09:13:47;;;;;;;;;;;;;;;21.02;79.99;101296.22;5281184;28;20500;-68
2021/08/04 09:16:19;;;;;;;6.47;3.65;;;;;;;20.93;73.84;101295.50;5286525;28;19916;-68
2021/08/04 09:18:54;;;;;;;6.78;4.68;;;;;;;20.98;76.17;101293.09;5285296;28;20470;-67
2021/08/04 09:21:25;;;;;;;8.52;4.75;;;;;;;20.99;77.25;101296.63;5287731;28;20082;-68
2021/08/04 09:23:57;;;;;;;5.70;4.00;;;;;;;20.79;72.82;101301.69;5283488;28;20071;-68
2021/08/04 09:26:28;;;;;;;6.13;4.43;;;;;;;20.99;73.37;101297.44;5286018;28;20515;-68
2021/08/04 09:29:02;;;;;;;7.67;4.97;;;;;;;20.74;75.64;101293.44;5266925;28;20107;-68
2021/08/04 09:31:39;;;;;;;5.68;4.30;;;;;;;20.93;78.21;101295.50;5283763;28;20082;-68
2021/08/04 09:34:37;;;;;;;7.20;4.75;;;;;;;21.18;78.31;101290.69;5285714;28;20029;-68
2021/08/04 09:37:12;;;;;;;6.43;4.97;;;;;;;21.29;73.86;101292.84;5282472;28;20028;-68
2021/08/04 09:39:54;;;;;;;6.43;4.65;;;;;;;21.23;72.49;101282.94;5278508;28;20032;-68
2021/08/04 09:42:47;;;;;;;9.07;4.93;;;;;;;21.68;76.69;101288.91;5282902;28;20028;-68
2021/08/04 09:45:25;;;;;;;9.63;4.30;;;;;;;21.76;72.96;101280.78;5286310;28;20028;-68
2021/08/04 09:48:05;;;;;;;7.13;4.18;;;;;;;21.80;72.55;101287.38;5283809;28;20390;-68
2021/08/04 09:51:02;;;;;;;6.13;3.88;;;;;;;21.93;73.82;101283.97;5283367;28;20473;-68
2021/08/04 09:53:38;;;;;;;6.10;4.05;;;;;;;21.94;71.00;101287.47;5278614;28;20517;-68
2021/08/04 09:56:15;;;;;;;5.30;3.95;;;;;;;21.93;70.55;101283.97;5284315;28;20078;-68
2021/08/04 09:58:51;;;;;;;6.80;4.28;;;;;;;22.07;69.85;101275.03;5279263;28;20264;-68
2021/08/04 10:01:38;;;;;;;7.40;4.10;;;;;;;22.17;71.31;101276.59;5283316;28;20032;-68
2021/08/04 10:04:11;;;;;;;7.05;4.10;;;;;;;22.28;71.47;101274.19;5284579;28;20032;-68
2021/08/04 10:06:45;;;;;;;9.13;4.40;;;;;;;22.27;66.83;101274.38;5280947;28;20020;-68
2021/08/04 10:09:18;;;;;;;5.82;4.15;;;;;;;22.60;67.80;101269.19;5283426;28;20534;-68
2021/08/04 10:11:50;;;;;;;7.68;4.80;;;;;;;22.36;67.46;101275.88;5282009;28;20067;-68
2021/08/04 10:14:22;;;;;;;9.23;4.65;;;;;;;22.67;66.78;101267.38;5281564;28;20032;-68
2021/08/04 10:16:53;;;;;;;6.90;4.43;;;;;;;22.82;68.86;101280.59;5284290;28;20524;-68
2021/08/04 10:19:26;;;;;;;6.77;5.43;;;;;;;22.70;66.60;101277.69;5283530;28;20034;-68
2021/08/04 10:21:57;;;;;;;7.05;5.70;;;;;;;22.52;63.41;101272.03;5283503;28;20024;-68
2021/08/04 10:24:29;;;;;;;6.07;5.10;;;;;;;22.83;66.29;101271.53;5284092;28;20024;-68
2021/08/04 10:27:01;;;;;;;6.25;5.60;;;;;;;22.83;62.67;101275.03;5283392;28;20090;-68
2021/08/04 10:29:32;;;;;;;8.20;5.83;;;;;;;23.16;62.26;101270.84;5278370;28;20464;-68
2021/08/04 10:32:04;;;;;;;6.97;6.10;;;;;;;22.82;62.08;101272.56;5278096;28;20024;-68
2021/08/04 10:34:35;;;;;;;6.80;5.93;;;;;;;23.06;64.51;101249.84;5280514;28;20536;-68
2021/08/04 10:37:07;;;;;;;6.50;5.47;;;;;;;23.08;64.15;101253.16;5280759;28;20119;-68
2021/08/04 10:39:38;;;;;;;9.33;5.57;;;;;;;22.96;61.16;101258.28;5282881;28;20700;-68
2021/08/04 10:42:09;;;;;;;5.83;5.20;;;;;;;23.14;63.91;101259.53;5281583;28;20081;-68
2021/08/04 10:44:41;;;;;;;6.20;5.60;;;;;;;23.21;63.79;101255.03;5278148;28;20111;-68
2021/08/04 10:47:26;;;;;;;5.97;5.40;;;;;;;23.43;66.27;101259.16;5280181;28;20024;-68
2021/08/04 10:50:11;;;;;;;7.50;6.30;;;;;;;23.50;65.77;101261.84;5282501;28;20020;-68
2021/08/04 10:52:58;;;;;;;6.38;5.70;;;;;;;23.82;66.79;101259.38;5283055;28;20093;-68
2021/08/04 10:55:53;;;;;;;7.28;6.50;;;;;;;23.88;66.70;101258.56;5283883;28;20066;-68
2021/08/04 10:58:25;;;;;;;6.97;5.53;;;;;;;23.59;65.19;101243.72;5279949;28;20036;-68
2021/08/04 11:01:23;;;;;;;6.18;5.43;;;;;;;23.72;64.40;101257.16;5282671;28;20020;-68
2021/08/04 11:03:55;;;;;;;9.80;6.07;;;;;;;23.25;65.43;101245.56;5282594;28;20045;-68
2021/08/04 11:06:26;;;;;;;7.63;6.10;;;;;;;23.21;63.71;101247.00;5284514;28;20107;-68
2021/08/04 11:09:12;;;;;;;6.47;5.77;;;;;;;23.73;63.23;101237.38;5283996;28;20046;-68
2021/08/04 11:11:54;;;;;;;7.90;6.45;;;;;;;23.77;63.54;101235.94;5282831;28;20032;-68
2021/08/04 11:14:46;;;;;;;7.07;5.82;;;;;;;24.15;66.50;101229.88;5278661;28;20107;-68
2021/08/04 11:17:20;;;;;;;9.75;6.40;;;;;;;23.55;63.01;101233.44;5266327;28;20528;-68
2021/08/04 11:19:58;;;;;;;7.38;5.95;;;;;;;23.54;63.48;101236.34;5277815;28;20036;-68
2021/08/04 11:22:35;;;;;;;8.13;5.75;;;;;;;23.34;63.81;101228.31;5279622;28;20036;-68
2021/08/04 11:25:26;;;;;;;7.35;5.55;;;;;;;23.21;64.89;101230.97;5261046;28;20675;-68
2021/08/04 11:27:58;;;;;;;7.47;5.85;;;;;;;22.83;64.13;101228.81;5273485;28;20032;-68
2021/08/04 11:30:34;;;;;;;7.57;4.93;;;;;;;23.31;63.22;101224.19;5257367;28;20047;-68
2021/08/04 11:33:27;;;;;;;6.97;5.22;;;;;;;23.82;61.86;101217.41;5275969;28;20041;-67
2021/08/04 11:36:04;;;;;;;7.25;5.22;;;;;;;23.97;62.69;101219.84;5277062;28;20549;-68
2021/08/04 11:38:54;;;;;;;5.57;5.03;;;;;;;23.88;63.69;101219.25;5281583;28;20031;-68